sensor_id;sensor_type;location;lat;lon;timestamp;P1;durP1;ratioP1;P2;durP2;ratioP2
39738;SDS011;25422;48.286;8.484;2023-04-03T00:01:07;18.98;;;14.10;;
39738;SDS011;25422;48.286;8.484;2023-04-03T00:03:33;17.38;;;13.63;;
39738;SDS011;25422;48.286;8.484;2023-04-03T00:05:58;19.40;;;13.88;;
39738;SDS011;25422;48.286;8.484;2023-04-03T00:08:25;17.40;;;11.98;;
39738;SDS011;25422;48.286;8.484;2023-04-03T00:10:50;16.88;;;13.07;;
39738;SDS011;25422;48.286;8.484;2023-04-03T00:13:16;18.83;;;12.45;;
39738;SDS011;25422;48.286;8.484;2023-04-03T00:15:41;19.83;;;12.52;;
39738;SDS011;25422;48.286;8.484;2023-04-03T00:18:07;17.95;;;11.77;;
39738;SDS011;25422;48.286;8.484;2023-04-03T00:20:33;18.23;;;13.10;;
39738;SDS011;25422;48.286;8.484;2023-04-03T00:22:58;18.02;;;13.10;;
39738;SDS011;25422;48.286;8.484;2023-04-03T00:25:24;17.50;;;12.80;;
39738;SDS011;25422;48.286;8.484;2023-04-03T00:27:49;19.15;;;12.93;;
39738;SDS011;25422;48.286;8.484;2023-04-03T00:30:17;19.63;;;13.45;;
39738;SDS011;25422;48.286;8.484;2023-04-03T00:32:43;20.83;;;12.75;;
39738;SDS011;25422;48.286;8.484;2023-04-03T00:35:09;18.48;;;12.60;;
39738;SDS011;25422;48.286;8.484;2023-04-03T00:37:35;16.75;;;12.27;;
39738;SDS011;25422;48.286;8.484;2023-04-03T00:40:00;17.88;;;12.68;;
39738;SDS011;25422;48.286;8.484;2023-04-03T00:42:26;32.60;;;12.85;;
39738;SDS011;25422;48.286;8.484;2023-04-03T00:47:18;16.00;;;11.32;;
39738;SDS011;25422;48.286;8.484;2023-04-03T00:49:44;16.10;;;12.25;;
39738;SDS011;25422;48.286;8.484;2023-04-03T00:52:12;13.65;;;11.18;;
39738;SDS011;25422;48.286;8.484;2023-04-03T00:54:42;17.23;;;11.32;;
39738;SDS011;25422;48.286;8.484;2023-04-03T00:57:08;14.65;;;11.18;;
39738;SDS011;25422;48.286;8.484;2023-04-03T00:59:37;15.48;;;11.32;;
39738;SDS011;25422;48.286;8.484;2023-04-03T01:02:06;15.57;;;11.98;;
39738;SDS011;25422;48.286;8.484;2023-04-03T01:04:36;14.73;;;11.05;;
39738;SDS011;25422;48.286;8.484;2023-04-03T01:07:05;18.83;;;12.27;;
39738;SDS011;25422;48.286;8.484;2023-04-03T01:09:34;15.57;;;11.68;;
39738;SDS011;25422;48.286;8.484;2023-04-03T01:15:07;18.25;;;12.60;;
39738;SDS011;25422;48.286;8.484;2023-04-03T01:17:49;13.55;;;10.50;;
39738;SDS011;25422;48.286;8.484;2023-04-03T01:23:17;17.05;;;11.95;;
39738;SDS011;25422;48.286;8.484;2023-04-03T01:25:52;17.63;;;11.85;;
39738;SDS011;25422;48.286;8.484;2023-04-03T01:28:28;20.25;;;11.80;;
39738;SDS011;25422;48.286;8.484;2023-04-03T01:33:47;19.27;;;12.27;;
39738;SDS011;25422;48.286;8.484;2023-04-03T01:36:14;18.88;;;12.45;;
39738;SDS011;25422;48.286;8.484;2023-04-03T01:38:45;20.02;;;12.63;;
39738;SDS011;25422;48.286;8.484;2023-04-03T01:41:11;22.65;;;13.30;;
39738;SDS011;25422;48.286;8.484;2023-04-03T01:43:37;19.02;;;12.93;;
39738;SDS011;25422;48.286;8.484;2023-04-03T01:46:03;21.67;;;14.55;;
39738;SDS011;25422;48.286;8.484;2023-04-03T01:48:28;19.88;;;14.70;;
39738;SDS011;25422;48.286;8.484;2023-04-03T01:50:54;19.73;;;13.23;;
39738;SDS011;25422;48.286;8.484;2023-04-03T01:53:19;21.00;;;14.18;;
39738;SDS011;25422;48.286;8.484;2023-04-03T01:55:45;20.80;;;14.55;;
39738;SDS011;25422;48.286;8.484;2023-04-03T01:58:11;19.70;;;14.05;;
39738;SDS011;25422;48.286;8.484;2023-04-03T02:00:36;19.42;;;14.30;;
39738;SDS011;25422;48.286;8.484;2023-04-03T02:03:02;21.95;;;13.65;;
39738;SDS011;25422;48.286;8.484;2023-04-03T02:05:27;20.45;;;14.63;;
39738;SDS011;25422;48.286;8.484;2023-04-03T02:07:53;22.10;;;14.48;;
39738;SDS011;25422;48.286;8.484;2023-04-03T02:10:18;25.10;;;15.45;;
39738;SDS011;25422;48.286;8.484;2023-04-03T02:12:44;22.90;;;13.80;;
39738;SDS011;25422;48.286;8.484;2023-04-03T02:15:10;22.85;;;13.73;;
39738;SDS011;25422;48.286;8.484;2023-04-03T02:17:35;22.05;;;13.73;;
39738;SDS011;25422;48.286;8.484;2023-04-03T02:20:01;24.25;;;14.18;;
39738;SDS011;25422;48.286;8.484;2023-04-03T02:22:28;20.60;;;14.00;;
39738;SDS011;25422;48.286;8.484;2023-04-03T02:24:53;21.83;;;13.55;;
39738;SDS011;25422;48.286;8.484;2023-04-03T02:27:19;23.05;;;13.75;;
39738;SDS011;25422;48.286;8.484;2023-04-03T02:29:44;17.67;;;12.45;;
39738;SDS011;25422;48.286;8.484;2023-04-03T02:32:10;19.92;;;13.82;;
39738;SDS011;25422;48.286;8.484;2023-04-03T02:34:36;20.45;;;13.85;;
39738;SDS011;25422;48.286;8.484;2023-04-03T02:37:01;21.05;;;13.82;;
39738;SDS011;25422;48.286;8.484;2023-04-03T02:39:27;18.05;;;13.10;;
39738;SDS011;25422;48.286;8.484;2023-04-03T02:41:54;23.40;;;14.75;;
39738;SDS011;25422;48.286;8.484;2023-04-03T02:44:22;21.83;;;14.18;;
39738;SDS011;25422;48.286;8.484;2023-04-03T02:46:49;23.30;;;14.80;;
39738;SDS011;25422;48.286;8.484;2023-04-03T02:49:15;21.70;;;14.38;;
39738;SDS011;25422;48.286;8.484;2023-04-03T02:51:41;23.63;;;15.75;;
39738;SDS011;25422;48.286;8.484;2023-04-03T02:54:07;21.98;;;14.55;;
39738;SDS011;25422;48.286;8.484;2023-04-03T02:56:35;22.65;;;14.90;;
39738;SDS011;25422;48.286;8.484;2023-04-03T02:59:00;23.13;;;14.82;;
39738;SDS011;25422;48.286;8.484;2023-04-03T03:01:26;24.73;;;16.20;;
39738;SDS011;25422;48.286;8.484;2023-04-03T03:06:22;21.75;;;14.38;;
39738;SDS011;25422;48.286;8.484;2023-04-03T03:08:47;24.90;;;14.90;;
39738;SDS011;25422;48.286;8.484;2023-04-03T03:11:13;23.65;;;14.77;;
39738;SDS011;25422;48.286;8.484;2023-04-03T03:13:38;22.60;;;14.68;;
39738;SDS011;25422;48.286;8.484;2023-04-03T03:16:04;26.45;;;16.52;;
39738;SDS011;25422;48.286;8.484;2023-04-03T03:18:30;22.70;;;14.63;;
39738;SDS011;25422;48.286;8.484;2023-04-03T03:20:57;24.20;;;15.05;;
39738;SDS011;25422;48.286;8.484;2023-04-03T03:23:24;22.73;;;13.88;;
39738;SDS011;25422;48.286;8.484;2023-04-03T03:25:55;24.98;;;14.05;;
39738;SDS011;25422;48.286;8.484;2023-04-03T03:28:25;20.42;;;13.85;;
39738;SDS011;25422;48.286;8.484;2023-04-03T03:30:51;18.30;;;12.73;;
39738;SDS011;25422;48.286;8.484;2023-04-03T03:33:17;19.60;;;13.48;;
39738;SDS011;25422;48.286;8.484;2023-04-03T03:35:43;19.13;;;14.05;;
39738;SDS011;25422;48.286;8.484;2023-04-03T03:38:09;23.75;;;14.68;;
39738;SDS011;25422;48.286;8.484;2023-04-03T03:40:35;20.00;;;13.48;;
39738;SDS011;25422;48.286;8.484;2023-04-03T03:43:01;22.05;;;14.65;;
39738;SDS011;25422;48.286;8.484;2023-04-03T03:45:26;21.63;;;13.65;;
39738;SDS011;25422;48.286;8.484;2023-04-03T03:47:52;18.75;;;12.75;;
39738;SDS011;25422;48.286;8.484;2023-04-03T03:50:17;18.10;;;12.55;;
39738;SDS011;25422;48.286;8.484;2023-04-03T03:52:43;20.70;;;13.70;;
39738;SDS011;25422;48.286;8.484;2023-04-03T03:55:10;19.27;;;12.52;;
39738;SDS011;25422;48.286;8.484;2023-04-03T03:57:36;17.92;;;12.32;;
39738;SDS011;25422;48.286;8.484;2023-04-03T04:00:02;21.13;;;13.00;;
39738;SDS011;25422;48.286;8.484;2023-04-03T04:02:29;19.63;;;12.65;;
39738;SDS011;25422;48.286;8.484;2023-04-03T04:04:55;21.52;;;13.75;;
39738;SDS011;25422;48.286;8.484;2023-04-03T04:07:20;20.42;;;13.57;;
39738;SDS011;25422;48.286;8.484;2023-04-03T04:09:46;20.25;;;13.45;;
39738;SDS011;25422;48.286;8.484;2023-04-03T04:12:12;18.80;;;12.40;;
39738;SDS011;25422;48.286;8.484;2023-04-03T04:14:38;20.00;;;11.95;;
39738;SDS011;25422;48.286;8.484;2023-04-03T04:17:06;16.92;;;11.77;;
39738;SDS011;25422;48.286;8.484;2023-04-03T04:19:31;16.50;;;11.30;;
39738;SDS011;25422;48.286;8.484;2023-04-03T04:21:58;15.43;;;11.02;;
39738;SDS011;25422;48.286;8.484;2023-04-03T04:24:24;19.92;;;11.30;;
39738;SDS011;25422;48.286;8.484;2023-04-03T04:26:52;15.40;;;11.15;;
39738;SDS011;25422;48.286;8.484;2023-04-03T04:29:20;22.05;;;13.55;;
39738;SDS011;25422;48.286;8.484;2023-04-03T04:31:48;15.75;;;11.77;;
39738;SDS011;25422;48.286;8.484;2023-04-03T04:34:13;17.45;;;11.55;;
39738;SDS011;25422;48.286;8.484;2023-04-03T04:36:39;17.15;;;11.02;;
39738;SDS011;25422;48.286;8.484;2023-04-03T04:39:05;16.13;;;11.50;;
39738;SDS011;25422;48.286;8.484;2023-04-03T04:41:31;14.65;;;10.55;;
39738;SDS011;25422;48.286;8.484;2023-04-03T04:43:57;13.80;;;9.98;;
39738;SDS011;25422;48.286;8.484;2023-04-03T04:46:24;16.02;;;11.95;;
39738;SDS011;25422;48.286;8.484;2023-04-03T04:51:21;19.13;;;14.25;;
39738;SDS011;25422;48.286;8.484;2023-04-03T04:53:46;21.02;;;17.38;;
39738;SDS011;25422;48.286;8.484;2023-04-03T04:56:14;24.27;;;19.48;;
39738;SDS011;25422;48.286;8.484;2023-04-03T04:58:41;24.05;;;19.88;;
39738;SDS011;25422;48.286;8.484;2023-04-03T05:01:08;19.30;;;13.73;;
39738;SDS011;25422;48.286;8.484;2023-04-03T05:03:40;14.68;;;10.23;;
39738;SDS011;25422;48.286;8.484;2023-04-03T05:06:05;16.70;;;11.00;;
39738;SDS011;25422;48.286;8.484;2023-04-03T05:08:32;17.63;;;10.63;;
39738;SDS011;25422;48.286;8.484;2023-04-03T05:10:59;17.05;;;9.90;;
39738;SDS011;25422;48.286;8.484;2023-04-03T05:13:25;16.92;;;9.85;;
39738;SDS011;25422;48.286;8.484;2023-04-03T05:15:52;16.42;;;10.00;;
39738;SDS011;25422;48.286;8.484;2023-04-03T05:18:17;16.35;;;10.25;;
39738;SDS011;25422;48.286;8.484;2023-04-03T05:20:43;16.95;;;11.05;;
39738;SDS011;25422;48.286;8.484;2023-04-03T05:23:09;15.40;;;10.30;;
39738;SDS011;25422;48.286;8.484;2023-04-03T05:25:37;13.60;;;9.95;;
39738;SDS011;25422;48.286;8.484;2023-04-03T05:28:03;15.98;;;10.65;;
39738;SDS011;25422;48.286;8.484;2023-04-03T05:30:28;16.80;;;10.85;;
39738;SDS011;25422;48.286;8.484;2023-04-03T05:32:55;15.60;;;9.77;;
39738;SDS011;25422;48.286;8.484;2023-04-03T05:35:31;13.73;;;9.50;;
39738;SDS011;25422;48.286;8.484;2023-04-03T05:38:00;13.97;;;10.40;;
39738;SDS011;25422;48.286;8.484;2023-04-03T05:40:25;15.20;;;11.10;;
39738;SDS011;25422;48.286;8.484;2023-04-03T05:42:54;22.08;;;17.08;;
39738;SDS011;25422;48.286;8.484;2023-04-03T05:45:21;14.75;;;10.40;;
39738;SDS011;25422;48.286;8.484;2023-04-03T05:47:47;16.50;;;11.43;;
39738;SDS011;25422;48.286;8.484;2023-04-03T05:50:12;14.88;;;10.40;;
39738;SDS011;25422;48.286;8.484;2023-04-03T05:52:40;16.17;;;11.73;;
39738;SDS011;25422;48.286;8.484;2023-04-03T05:55:09;22.67;;;11.50;;
39738;SDS011;25422;48.286;8.484;2023-04-03T05:57:35;18.45;;;12.18;;
39738;SDS011;25422;48.286;8.484;2023-04-03T06:00:02;18.73;;;13.38;;
39738;SDS011;25422;48.286;8.484;2023-04-03T06:02:39;16.67;;;12.73;;
39738;SDS011;25422;48.286;8.484;2023-04-03T06:05:08;14.45;;;11.35;;
39738;SDS011;25422;48.286;8.484;2023-04-03T06:07:34;17.55;;;14.77;;
39738;SDS011;25422;48.286;8.484;2023-04-03T06:10:00;15.68;;;13.38;;
39738;SDS011;25422;48.286;8.484;2023-04-03T06:12:26;27.20;;;21.20;;
39738;SDS011;25422;48.286;8.484;2023-04-03T06:14:54;20.33;;;14.00;;
39738;SDS011;25422;48.286;8.484;2023-04-03T06:17:19;26.48;;;19.98;;
39738;SDS011;25422;48.286;8.484;2023-04-03T06:19:45;20.15;;;16.05;;
39738;SDS011;25422;48.286;8.484;2023-04-03T06:22:11;15.05;;;11.57;;
39738;SDS011;25422;48.286;8.484;2023-04-03T06:24:37;13.10;;;8.40;;
39738;SDS011;25422;48.286;8.484;2023-04-03T06:27:03;10.25;;;8.32;;
39738;SDS011;25422;48.286;8.484;2023-04-03T06:29:28;12.20;;;9.52;;
39738;SDS011;25422;48.286;8.484;2023-04-03T06:31:54;11.35;;;8.80;;
39738;SDS011;25422;48.286;8.484;2023-04-03T06:34:20;13.20;;;9.10;;
39738;SDS011;25422;48.286;8.484;2023-04-03T06:36:46;11.88;;;8.23;;
39738;SDS011;25422;48.286;8.484;2023-04-03T06:39:15;12.35;;;8.43;;
39738;SDS011;25422;48.286;8.484;2023-04-03T06:41:42;12.98;;;9.52;;
39738;SDS011;25422;48.286;8.484;2023-04-03T06:44:08;11.73;;;8.40;;
39738;SDS011;25422;48.286;8.484;2023-04-03T06:46:36;9.35;;;7.30;;
39738;SDS011;25422;48.286;8.484;2023-04-03T06:49:02;10.38;;;7.63;;
39738;SDS011;25422;48.286;8.484;2023-04-03T06:51:29;12.40;;;8.00;;
39738;SDS011;25422;48.286;8.484;2023-04-03T06:53:56;9.73;;;8.10;;
39738;SDS011;25422;48.286;8.484;2023-04-03T06:56:23;11.70;;;7.93;;
39738;SDS011;25422;48.286;8.484;2023-04-03T06:58:50;13.00;;;7.65;;
39738;SDS011;25422;48.286;8.484;2023-04-03T07:01:16;10.68;;;8.02;;
39738;SDS011;25422;48.286;8.484;2023-04-03T07:03:44;10.10;;;7.50;;
39738;SDS011;25422;48.286;8.484;2023-04-03T07:06:13;10.82;;;7.55;;
39738;SDS011;25422;48.286;8.484;2023-04-03T07:11:05;11.88;;;7.55;;
39738;SDS011;25422;48.286;8.484;2023-04-03T07:13:31;11.52;;;7.90;;
39738;SDS011;25422;48.286;8.484;2023-04-03T07:15:57;8.98;;;6.93;;
39738;SDS011;25422;48.286;8.484;2023-04-03T07:18:23;10.95;;;7.55;;
39738;SDS011;25422;48.286;8.484;2023-04-03T07:20:49;9.88;;;7.15;;
39738;SDS011;25422;48.286;8.484;2023-04-03T07:23:15;10.25;;;6.93;;
39738;SDS011;25422;48.286;8.484;2023-04-03T07:25:42;9.65;;;7.03;;
39738;SDS011;25422;48.286;8.484;2023-04-03T07:28:09;9.68;;;7.35;;
39738;SDS011;25422;48.286;8.484;2023-04-03T07:30:34;11.32;;;7.90;;
39738;SDS011;25422;48.286;8.484;2023-04-03T07:33:00;10.60;;;6.97;;
39738;SDS011;25422;48.286;8.484;2023-04-03T07:35:26;8.77;;;7.05;;
39738;SDS011;25422;48.286;8.484;2023-04-03T07:37:52;11.20;;;8.50;;
39738;SDS011;25422;48.286;8.484;2023-04-03T07:40:18;12.80;;;8.07;;
39738;SDS011;25422;48.286;8.484;2023-04-03T07:42:43;11.57;;;8.27;;
39738;SDS011;25422;48.286;8.484;2023-04-03T07:45:09;9.88;;;6.82;;
39738;SDS011;25422;48.286;8.484;2023-04-03T07:47:35;9.13;;;7.05;;
39738;SDS011;25422;48.286;8.484;2023-04-03T07:50:01;12.00;;;6.70;;
39738;SDS011;25422;48.286;8.484;2023-04-03T07:52:26;8.93;;;6.13;;
39738;SDS011;25422;48.286;8.484;2023-04-03T07:54:52;9.40;;;6.55;;
39738;SDS011;25422;48.286;8.484;2023-04-03T07:57:17;8.55;;;5.70;;
39738;SDS011;25422;48.286;8.484;2023-04-03T07:59:42;7.63;;;6.00;;
39738;SDS011;25422;48.286;8.484;2023-04-03T08:02:09;9.27;;;5.78;;
39738;SDS011;25422;48.286;8.484;2023-04-03T08:04:35;9.75;;;7.18;;
39738;SDS011;25422;48.286;8.484;2023-04-03T08:07:00;14.00;;;8.82;;
39738;SDS011;25422;48.286;8.484;2023-04-03T08:09:25;10.27;;;7.95;;
39738;SDS011;25422;48.286;8.484;2023-04-03T08:11:51;12.07;;;8.07;;
39738;SDS011;25422;48.286;8.484;2023-04-03T08:14:18;9.10;;;7.65;;
39738;SDS011;25422;48.286;8.484;2023-04-03T08:16:46;11.57;;;10.32;;
39738;SDS011;25422;48.286;8.484;2023-04-03T08:19:13;9.10;;;6.80;;
39738;SDS011;25422;48.286;8.484;2023-04-03T08:21:41;4.88;;;4.38;;
39738;SDS011;25422;48.286;8.484;2023-04-03T08:24:07;7.18;;;4.35;;
39738;SDS011;25422;48.286;8.484;2023-04-03T08:26:33;6.35;;;5.75;;
39738;SDS011;25422;48.286;8.484;2023-04-03T08:28:59;8.90;;;6.57;;
39738;SDS011;25422;48.286;8.484;2023-04-03T08:31:24;9.90;;;6.90;;
39738;SDS011;25422;48.286;8.484;2023-04-03T08:33:50;4.45;;;3.65;;
39738;SDS011;25422;48.286;8.484;2023-04-03T08:36:17;3.95;;;3.28;;
39738;SDS011;25422;48.286;8.484;2023-04-03T08:38:45;4.95;;;3.20;;
39738;SDS011;25422;48.286;8.484;2023-04-03T08:43:56;3.45;;;3.00;;
39738;SDS011;25422;48.286;8.484;2023-04-03T08:46:31;4.57;;;3.22;;
39738;SDS011;25422;48.286;8.484;2023-04-03T08:49:07;4.53;;;3.72;;
39738;SDS011;25422;48.286;8.484;2023-04-03T08:51:41;3.65;;;3.30;;
39738;SDS011;25422;48.286;8.484;2023-04-03T08:54:24;4.20;;;3.45;;
39738;SDS011;25422;48.286;8.484;2023-04-03T08:56:57;4.57;;;3.05;;
39738;SDS011;25422;48.286;8.484;2023-04-03T08:59:32;14.68;;;7.70;;
39738;SDS011;25422;48.286;8.484;2023-04-03T09:02:00;15.38;;;8.02;;
39738;SDS011;25422;48.286;8.484;2023-04-03T09:04:32;7.43;;;4.95;;
39738;SDS011;25422;48.286;8.484;2023-04-03T09:07:00;11.00;;;6.57;;
39738;SDS011;25422;48.286;8.484;2023-04-03T09:09:36;8.77;;;5.35;;
39738;SDS011;25422;48.286;8.484;2023-04-03T09:14:39;5.45;;;3.80;;
39738;SDS011;25422;48.286;8.484;2023-04-03T09:26:05;4.18;;;3.33;;
39738;SDS011;25422;48.286;8.484;2023-04-03T09:28:42;3.97;;;3.00;;
39738;SDS011;25422;48.286;8.484;2023-04-03T09:33:43;3.92;;;2.65;;
39738;SDS011;25422;48.286;8.484;2023-04-03T09:36:10;3.03;;;2.67;;
39738;SDS011;25422;48.286;8.484;2023-04-03T09:38:36;3.85;;;3.08;;
39738;SDS011;25422;48.286;8.484;2023-04-03T09:43:30;4.95;;;3.33;;
39738;SDS011;25422;48.286;8.484;2023-04-03T09:46:18;3.13;;;2.80;;
39738;SDS011;25422;48.286;8.484;2023-04-03T09:49:04;3.35;;;3.05;;
39738;SDS011;25422;48.286;8.484;2023-04-03T09:51:31;6.10;;;3.28;;
39738;SDS011;25422;48.286;8.484;2023-04-03T09:53:57;4.68;;;3.53;;
39738;SDS011;25422;48.286;8.484;2023-04-03T09:56:27;3.15;;;2.70;;
39738;SDS011;25422;48.286;8.484;2023-04-03T10:01:29;3.55;;;3.25;;
39738;SDS011;25422;48.286;8.484;2023-04-03T10:04:07;3.22;;;2.92;;
39738;SDS011;25422;48.286;8.484;2023-04-03T10:06:45;4.72;;;3.10;;
39738;SDS011;25422;48.286;8.484;2023-04-03T10:12:00;3.97;;;3.55;;
39738;SDS011;25422;48.286;8.484;2023-04-03T10:14:35;4.68;;;3.67;;
39738;SDS011;25422;48.286;8.484;2023-04-03T10:22:39;6.35;;;4.50;;
39738;SDS011;25422;48.286;8.484;2023-04-03T10:27:55;6.03;;;3.50;;
39738;SDS011;25422;48.286;8.484;2023-04-03T10:44:20;3.50;;;3.17;;
39738;SDS011;25422;48.286;8.484;2023-04-03T10:49:47;4.35;;;3.70;;
39738;SDS011;25422;48.286;8.484;2023-04-03T10:57:38;6.13;;;3.03;;
39738;SDS011;25422;48.286;8.484;2023-04-03T11:00:16;3.90;;;3.47;;
39738;SDS011;25422;48.286;8.484;2023-04-03T11:02:52;5.80;;;3.47;;
39738;SDS011;25422;48.286;8.484;2023-04-03T11:05:26;4.85;;;3.35;;
39738;SDS011;25422;48.286;8.484;2023-04-03T11:08:02;5.78;;;3.85;;
39738;SDS011;25422;48.286;8.484;2023-04-03T11:10:45;10.68;;;9.57;;
39738;SDS011;25422;48.286;8.484;2023-04-03T11:13:15;6.65;;;3.83;;
39738;SDS011;25422;48.286;8.484;2023-04-03T11:15:48;4.57;;;3.55;;
39738;SDS011;25422;48.286;8.484;2023-04-03T11:18:17;4.68;;;3.90;;
39738;SDS011;25422;48.286;8.484;2023-04-03T11:20:53;5.00;;;3.65;;
39738;SDS011;25422;48.286;8.484;2023-04-03T11:23:26;5.90;;;3.95;;
39738;SDS011;25422;48.286;8.484;2023-04-03T11:25:59;7.43;;;5.60;;
39738;SDS011;25422;48.286;8.484;2023-04-03T11:28:32;4.18;;;3.78;;
39738;SDS011;25422;48.286;8.484;2023-04-03T11:31:02;6.35;;;3.92;;
39738;SDS011;25422;48.286;8.484;2023-04-03T11:36:54;3.63;;;3.30;;
39738;SDS011;25422;48.286;8.484;2023-04-03T11:39:28;4.75;;;3.42;;
39738;SDS011;25422;48.286;8.484;2023-04-03T11:42:29;5.40;;;3.50;;
39738;SDS011;25422;48.286;8.484;2023-04-03T11:47:56;8.75;;;6.85;;
39738;SDS011;25422;48.286;8.484;2023-04-03T12:05:57;5.65;;;3.40;;
39738;SDS011;25422;48.286;8.484;2023-04-03T12:09:02;4.75;;;3.40;;
39738;SDS011;25422;48.286;8.484;2023-04-03T12:11:47;4.28;;;3.47;;
39738;SDS011;25422;48.286;8.484;2023-04-03T12:14:14;5.38;;;3.00;;
39738;SDS011;25422;48.286;8.484;2023-04-03T12:16:42;3.92;;;3.38;;
39738;SDS011;25422;48.286;8.484;2023-04-03T12:46:38;6.97;;;4.22;;
39738;SDS011;25422;48.286;8.484;2023-04-03T12:49:33;4.55;;;3.33;;
39738;SDS011;25422;48.286;8.484;2023-04-03T12:52:25;6.07;;;4.00;;
39738;SDS011;25422;48.286;8.484;2023-04-03T12:55:01;9.13;;;3.97;;
39738;SDS011;25422;48.286;8.484;2023-04-03T12:57:29;7.15;;;4.30;;
39738;SDS011;25422;48.286;8.484;2023-04-03T12:59:55;5.40;;;3.40;;
39738;SDS011;25422;48.286;8.484;2023-04-03T13:02:26;4.60;;;3.28;;
39738;SDS011;25422;48.286;8.484;2023-04-03T13:04:55;4.05;;;3.53;;
39738;SDS011;25422;48.286;8.484;2023-04-03T13:07:30;6.35;;;4.40;;
39738;SDS011;25422;48.286;8.484;2023-04-03T13:12:30;7.78;;;4.82;;
39738;SDS011;25422;48.286;8.484;2023-04-03T13:14:58;8.98;;;5.45;;
39738;SDS011;25422;48.286;8.484;2023-04-03T13:17:26;5.95;;;4.95;;
39738;SDS011;25422;48.286;8.484;2023-04-03T13:19:52;4.57;;;3.20;;
39738;SDS011;25422;48.286;8.484;2023-04-03T13:22:38;4.32;;;2.97;;
39738;SDS011;25422;48.286;8.484;2023-04-03T13:25:13;4.03;;;3.05;;
39738;SDS011;25422;48.286;8.484;2023-04-03T13:27:41;3.77;;;3.03;;
39738;SDS011;25422;48.286;8.484;2023-04-03T13:30:23;4.22;;;3.00;;
39738;SDS011;25422;48.286;8.484;2023-04-03T13:32:57;4.82;;;2.90;;
39738;SDS011;25422;48.286;8.484;2023-04-03T13:35:33;11.75;;;7.53;;
39738;SDS011;25422;48.286;8.484;2023-04-03T13:38:44;8.77;;;5.03;;
39738;SDS011;25422;48.286;8.484;2023-04-03T13:40:48;16.05;;;8.98;;
39738;SDS011;25422;48.286;8.484;2023-04-03T13:43:20;8.90;;;5.75;;
39738;SDS011;25422;48.286;8.484;2023-04-03T13:45:56;7.45;;;5.13;;
39738;SDS011;25422;48.286;8.484;2023-04-03T13:48:34;11.20;;;6.20;;
39738;SDS011;25422;48.286;8.484;2023-04-03T13:51:03;11.38;;;7.43;;
39738;SDS011;25422;48.286;8.484;2023-04-03T13:53:33;7.10;;;3.63;;
39738;SDS011;25422;48.286;8.484;2023-04-03T13:56:07;7.45;;;4.00;;
39738;SDS011;25422;48.286;8.484;2023-04-03T13:58:51;7.50;;;4.28;;
39738;SDS011;25422;48.286;8.484;2023-04-03T14:01:33;7.63;;;5.40;;
39738;SDS011;25422;48.286;8.484;2023-04-03T14:06:44;12.13;;;9.48;;
39738;SDS011;25422;48.286;8.484;2023-04-03T14:09:10;23.83;;;16.08;;
39738;SDS011;25422;48.286;8.484;2023-04-03T14:11:35;12.55;;;9.07;;
39738;SDS011;25422;48.286;8.484;2023-04-03T14:14:02;10.38;;;7.80;;
39738;SDS011;25422;48.286;8.484;2023-04-03T14:16:38;11.38;;;8.25;;
39738;SDS011;25422;48.286;8.484;2023-04-03T14:19:09;11.13;;;7.40;;
39738;SDS011;25422;48.286;8.484;2023-04-03T14:21:41;6.93;;;4.68;;
39738;SDS011;25422;48.286;8.484;2023-04-03T14:24:06;6.70;;;4.38;;
39738;SDS011;25422;48.286;8.484;2023-04-03T14:26:32;5.85;;;4.80;;
39738;SDS011;25422;48.286;8.484;2023-04-03T14:28:58;5.22;;;3.50;;
39738;SDS011;25422;48.286;8.484;2023-04-03T14:31:23;6.57;;;5.82;;
39738;SDS011;25422;48.286;8.484;2023-04-03T14:33:49;6.32;;;4.45;;
39738;SDS011;25422;48.286;8.484;2023-04-03T14:36:22;12.63;;;9.43;;
39738;SDS011;25422;48.286;8.484;2023-04-03T14:38:50;19.23;;;12.57;;
39738;SDS011;25422;48.286;8.484;2023-04-03T14:41:17;18.27;;;10.20;;
39738;SDS011;25422;48.286;8.484;2023-04-03T14:43:47;13.30;;;10.00;;
39738;SDS011;25422;48.286;8.484;2023-04-03T14:46:14;10.13;;;4.88;;
39738;SDS011;25422;48.286;8.484;2023-04-03T14:48:42;11.65;;;9.00;;
39738;SDS011;25422;48.286;8.484;2023-04-03T14:51:12;13.98;;;8.30;;
39738;SDS011;25422;48.286;8.484;2023-04-03T14:53:39;4.80;;;3.45;;
39738;SDS011;25422;48.286;8.484;2023-04-03T14:56:13;3.92;;;3.20;;
39738;SDS011;25422;48.286;8.484;2023-04-03T14:58:40;4.45;;;4.05;;
39738;SDS011;25422;48.286;8.484;2023-04-03T15:01:06;8.05;;;5.22;;
39738;SDS011;25422;48.286;8.484;2023-04-03T15:03:31;7.32;;;6.05;;
39738;SDS011;25422;48.286;8.484;2023-04-03T15:05:59;12.52;;;7.22;;
39738;SDS011;25422;48.286;8.484;2023-04-03T15:08:25;7.95;;;4.97;;
39738;SDS011;25422;48.286;8.484;2023-04-03T15:10:54;8.35;;;6.13;;
39738;SDS011;25422;48.286;8.484;2023-04-03T15:13:21;8.57;;;6.40;;
39738;SDS011;25422;48.286;8.484;2023-04-03T15:15:49;9.73;;;6.65;;
39738;SDS011;25422;48.286;8.484;2023-04-03T15:18:20;17.65;;;10.32;;
39738;SDS011;25422;48.286;8.484;2023-04-03T15:20:47;9.48;;;6.00;;
39738;SDS011;25422;48.286;8.484;2023-04-03T15:23:16;8.88;;;6.93;;
39738;SDS011;25422;48.286;8.484;2023-04-03T15:25:45;11.13;;;7.13;;
39738;SDS011;25422;48.286;8.484;2023-04-03T15:28:23;6.63;;;4.78;;
39738;SDS011;25422;48.286;8.484;2023-04-03T15:30:59;5.18;;;3.45;;
39738;SDS011;25422;48.286;8.484;2023-04-03T15:33:25;15.60;;;8.40;;
39738;SDS011;25422;48.286;8.484;2023-04-03T15:35:51;5.53;;;3.40;;
39738;SDS011;25422;48.286;8.484;2023-04-03T15:38:16;3.97;;;3.03;;
39738;SDS011;25422;48.286;8.484;2023-04-03T15:40:42;3.65;;;3.35;;
39738;SDS011;25422;48.286;8.484;2023-04-03T15:43:08;6.05;;;3.60;;
39738;SDS011;25422;48.286;8.484;2023-04-03T15:45:35;4.60;;;3.30;;
39738;SDS011;25422;48.286;8.484;2023-04-03T15:48:02;6.95;;;5.55;;
39738;SDS011;25422;48.286;8.484;2023-04-03T15:50:29;8.02;;;5.35;;
39738;SDS011;25422;48.286;8.484;2023-04-03T15:52:55;6.38;;;4.70;;
39738;SDS011;25422;48.286;8.484;2023-04-03T15:55:25;12.25;;;8.93;;
39738;SDS011;25422;48.286;8.484;2023-04-03T15:57:52;16.23;;;9.50;;
39738;SDS011;25422;48.286;8.484;2023-04-03T16:00:18;41.88;;;22.48;;
39738;SDS011;25422;48.286;8.484;2023-04-03T16:02:45;14.13;;;10.20;;
39738;SDS011;25422;48.286;8.484;2023-04-03T16:05:12;9.88;;;6.85;;
39738;SDS011;25422;48.286;8.484;2023-04-03T16:07:40;5.32;;;3.70;;
39738;SDS011;25422;48.286;8.484;2023-04-03T16:10:06;13.00;;;7.80;;
39738;SDS011;25422;48.286;8.484;2023-04-03T16:12:33;13.50;;;8.35;;
39738;SDS011;25422;48.286;8.484;2023-04-03T16:14:59;10.25;;;7.15;;
39738;SDS011;25422;48.286;8.484;2023-04-03T16:17:25;9.88;;;7.38;;
39738;SDS011;25422;48.286;8.484;2023-04-03T16:19:52;7.93;;;5.95;;
39738;SDS011;25422;48.286;8.484;2023-04-03T16:22:19;9.32;;;5.43;;
39738;SDS011;25422;48.286;8.484;2023-04-03T16:24:45;5.22;;;4.10;;
39738;SDS011;25422;48.286;8.484;2023-04-03T16:27:11;5.25;;;3.60;;
39738;SDS011;25422;48.286;8.484;2023-04-03T16:29:36;5.60;;;2.97;;
39738;SDS011;25422;48.286;8.484;2023-04-03T16:32:01;5.90;;;3.75;;
39738;SDS011;25422;48.286;8.484;2023-04-03T16:34:27;6.55;;;4.20;;
39738;SDS011;25422;48.286;8.484;2023-04-03T16:36:55;4.45;;;3.42;;
39738;SDS011;25422;48.286;8.484;2023-04-03T16:39:20;8.63;;;4.50;;
39738;SDS011;25422;48.286;8.484;2023-04-03T16:41:46;8.25;;;5.60;;
39738;SDS011;25422;48.286;8.484;2023-04-03T16:44:11;29.00;;;14.25;;
39738;SDS011;25422;48.286;8.484;2023-04-03T16:46:37;6.43;;;4.32;;
39738;SDS011;25422;48.286;8.484;2023-04-03T16:49:03;17.58;;;12.05;;